createdAt,value
2018-02-20T00:01:42.000Z,28.1
2018-02-20T00:02:57.000Z,28
2018-02-20T00:03:57.000Z,28
2018-02-20T00:04:57.000Z,28
2018-02-20T00:06:57.000Z,28
2018-02-20T00:07:57.000Z,28
2018-02-20T00:09:57.000Z,28
2018-02-20T00:10:57.000Z,27.9
2018-02-20T00:12:57.000Z,28
2018-02-20T00:13:57.000Z,28
2018-02-20T00:14:57.000Z,28
2018-02-20T00:16:57.000Z,28.1
2018-02-20T00:17:57.000Z,28.1
2018-02-20T00:19:57.000Z,28.1
2018-02-20T00:21:57.000Z,28.1
2018-02-20T00:22:57.000Z,28.1
2018-02-20T00:23:58.000Z,28.1
2018-02-20T00:25:57.000Z,28.1
2018-02-20T00:26:57.000Z,28.1
2018-02-20T00:27:58.000Z,28.1
2018-02-20T00:29:57.000Z,28.1
2018-02-20T00:30:57.000Z,28.1
2018-02-20T00:32:57.000Z,28
2018-02-20T00:34:57.000Z,27.9
2018-02-20T00:35:57.000Z,27.9
2018-02-20T00:36:57.000Z,27.9
2018-02-20T00:37:58.000Z,28
2018-02-20T00:39:57.000Z,28
2018-02-20T00:41:57.000Z,28
2018-02-20T00:42:57.000Z,28
2018-02-20T00:43:57.000Z,27.9
2018-02-20T00:44:57.000Z,28
2018-02-20T00:46:58.000Z,28
2018-02-20T00:48:57.000Z,28
2018-02-20T00:50:58.000Z,27.9
2018-02-20T00:52:58.000Z,27.8
2018-02-20T00:54:57.000Z,27.7
2018-02-20T00:55:58.000Z,27.7
2018-02-20T00:56:58.000Z,27.8
2018-02-20T00:57:58.000Z,27.8
2018-02-20T00:59:58.000Z,27.9
2018-02-20T01:00:58.000Z,28
2018-02-20T01:01:58.000Z,28
2018-02-20T01:02:58.000Z,28.1
2018-02-20T01:04:58.000Z,28.1
2018-02-20T01:06:58.000Z,28.1
2018-02-20T01:08:58.000Z,28
2018-02-20T01:09:58.000Z,28
2018-02-20T01:11:58.000Z,27.9
2018-02-20T01:13:58.000Z,27.8
2018-02-20T01:15:42.000Z,27.8
2018-02-20T01:16:58.000Z,27.8
2018-02-20T01:17:58.000Z,27.8
2018-02-20T01:19:58.000Z,27.8
2018-02-20T01:20:58.000Z,27.8
2018-02-20T01:22:58.000Z,27.9
2018-02-20T01:23:58.000Z,27.9
2018-02-20T01:25:58.000Z,27.9
2018-02-20T01:26:58.000Z,27.9
2018-02-20T01:27:58.000Z,27.9
2018-02-20T01:28:58.000Z,27.9
2018-02-20T01:30:58.000Z,27.9
2018-02-20T01:31:58.000Z,27.9
2018-02-20T01:33:58.000Z,27.9
2018-02-20T01:35:58.000Z,27.9
2018-02-20T01:37:58.000Z,27.8
2018-02-20T01:38:58.000Z,27.8
2018-02-20T01:40:58.000Z,27.7
2018-02-20T01:42:58.000Z,27.7
2018-02-20T01:43:58.000Z,27.7
2018-02-20T01:44:58.000Z,27.7
2018-02-20T01:46:42.000Z,27.7
2018-02-20T01:47:58.000Z,27.7
2018-02-20T01:49:58.000Z,27.7
2018-02-20T01:50:58.000Z,27.7
2018-02-20T01:51:58.000Z,27.8
2018-02-20T01:53:58.000Z,27.8
2018-02-20T01:55:58.000Z,27.7
2018-02-20T01:57:58.000Z,27.7
2018-02-20T01:59:58.000Z,27.7
2018-02-20T02:00:58.000Z,27.7
2018-02-20T02:02:58.000Z,27.7
2018-02-20T02:04:42.000Z,27.7
2018-02-20T02:05:58.000Z,27.7
2018-02-20T02:07:58.000Z,27.6
2018-02-20T02:08:58.000Z,27.6
2018-02-20T02:09:58.000Z,27.6
2018-02-20T02:11:58.000Z,27.6
2018-02-20T02:13:42.000Z,27.6
2018-02-20T02:14:58.000Z,27.6
2018-02-20T02:15:58.000Z,27.6
2018-02-20T02:16:58.000Z,27.7
2018-02-20T02:18:58.000Z,27.7
2018-02-20T02:20:58.000Z,27.7
2018-02-20T02:21:58.000Z,27.7
2018-02-20T02:23:58.000Z,27.7
2018-02-20T02:24:58.000Z,27.7
2018-02-20T02:25:58.000Z,27.7
2018-02-20T02:27:58.000Z,27.7
2018-02-20T02:29:43.000Z,27.6
2018-02-20T02:30:58.000Z,27.6
2018-02-20T02:31:58.000Z,27.6
2018-02-20T02:33:58.000Z,27.6
2018-02-20T02:34:58.000Z,27.6
2018-02-20T02:36:58.000Z,27.6
2018-02-20T02:38:58.000Z,27.6
2018-02-20T02:40:58.000Z,27.5
2018-02-20T02:41:58.000Z,27.5
2018-02-20T02:42:58.000Z,27.5
2018-02-20T02:43:58.000Z,27.6
2018-02-20T02:45:58.000Z,27.7
2018-02-20T02:47:58.000Z,27.7
2018-02-20T02:49:58.000Z,27.6
2018-02-20T02:50:58.000Z,27.6
2018-02-20T02:52:43.000Z,27.6
2018-02-20T02:53:58.000Z,27.6
2018-02-20T02:54:58.000Z,27.6
2018-02-20T02:56:58.000Z,27.7
2018-02-20T02:58:58.000Z,27.6
2018-02-20T03:00:58.000Z,27.5
2018-02-20T03:02:58.000Z,27.5
2018-02-20T03:04:58.000Z,27.5
2018-02-20T03:05:58.000Z,27.5
2018-02-20T03:07:58.000Z,27.6
2018-02-20T03:09:58.000Z,27.5
2018-02-20T03:10:58.000Z,27.6
2018-02-20T03:12:58.000Z,27.5
2018-02-20T03:13:58.000Z,27.5
2018-02-20T03:14:58.000Z,27.5
2018-02-20T03:16:58.000Z,27.5
2018-02-20T03:18:58.000Z,27.5
2018-02-20T03:20:58.000Z,27.5
2018-02-20T03:21:58.000Z,27.5
2018-02-20T03:23:58.000Z,27.5
2018-02-20T03:25:58.000Z,27.4
2018-02-20T03:27:58.000Z,27.4
2018-02-20T03:28:58.000Z,27.4
2018-02-20T03:29:58.000Z,27.5
2018-02-20T03:31:43.000Z,27.6
2018-02-20T03:32:58.000Z,27.5
2018-02-20T03:33:58.000Z,27.5
2018-02-20T03:34:58.000Z,27.6
2018-02-20T03:36:43.000Z,27.7
2018-02-20T03:37:58.000Z,27.6
2018-02-20T03:38:58.000Z,27.6
2018-02-20T03:39:58.000Z,27.7
2018-02-20T03:41:58.000Z,27.7
2018-02-20T03:42:58.000Z,27.7
2018-02-20T03:44:58.000Z,27.7
2018-02-20T03:46:58.000Z,27.6
2018-02-20T03:47:58.000Z,27.5
2018-02-20T03:48:58.000Z,27.5
2018-02-20T03:49:58.000Z,27.6
2018-02-20T03:50:58.000Z,27.6
2018-02-20T03:51:58.000Z,27.6
2018-02-20T03:53:58.000Z,27.7
2018-02-20T03:54:58.000Z,27.7
2018-02-20T03:56:58.000Z,27.7
2018-02-20T03:57:58.000Z,27.7
2018-02-20T03:58:58.000Z,27.7
2018-02-20T04:00:58.000Z,27.7
2018-02-20T04:02:58.000Z,27.6
2018-02-20T04:03:58.000Z,27.6
2018-02-20T04:04:58.000Z,27.7
2018-02-20T04:06:58.000Z,27.7
2018-02-20T04:07:58.000Z,27.7
2018-02-20T04:09:58.000Z,27.6
2018-02-20T04:11:58.000Z,27.6
2018-02-20T04:12:58.000Z,27.6
2018-02-20T04:13:58.000Z,27.6
2018-02-20T04:15:58.000Z,27.6
2018-02-20T04:16:58.000Z,27.6
2018-02-20T04:18:58.000Z,27.6
2018-02-20T04:19:58.000Z,27.6
2018-02-20T04:20:58.000Z,27.6
2018-02-20T04:21:58.000Z,27.7
2018-02-20T04:22:58.000Z,27.7
2018-02-20T04:23:58.000Z,27.7
2018-02-20T04:24:58.000Z,27.8
2018-02-20T04:26:58.000Z,27.8
2018-02-20T04:27:58.000Z,27.8
2018-02-20T04:28:58.000Z,27.8
2018-02-20T04:29:58.000Z,27.8
2018-02-20T04:31:58.000Z,27.8
2018-02-20T04:33:58.000Z,27.7
2018-02-20T04:34:58.000Z,27.6
2018-02-20T04:35:58.000Z,27.6
2018-02-20T04:36:58.000Z,27.6
2018-02-20T04:37:58.000Z,27.7
2018-02-20T04:38:58.000Z,27.7
2018-02-20T04:40:58.000Z,27.7
2018-02-20T04:42:58.000Z,27.6
2018-02-20T04:43:58.000Z,27.6
2018-02-20T04:44:58.000Z,27.6
2018-02-20T04:45:58.000Z,27.7
2018-02-20T04:46:58.000Z,27.7
2018-02-20T04:48:58.000Z,27.8
2018-02-20T04:50:58.000Z,27.7
2018-02-20T04:51:58.000Z,27.6
2018-02-20T04:53:58.000Z,27.6
2018-02-20T04:54:58.000Z,27.6
2018-02-20T04:56:58.000Z,27.6
2018-02-20T04:58:58.000Z,27.5
2018-02-20T05:00:58.000Z,27.5
2018-02-20T05:01:58.000Z,27.5
2018-02-20T05:03:58.000Z,27.5
2018-02-20T05:05:58.000Z,27.4
2018-02-20T05:06:58.000Z,27.4
2018-02-20T05:08:58.000Z,27.4
2018-02-20T05:10:58.000Z,27.3
2018-02-20T05:12:58.000Z,27.3
2018-02-20T05:13:58.000Z,27.3
2018-02-20T05:14:58.000Z,27.3
2018-02-20T05:16:58.000Z,27.4
2018-02-20T05:18:58.000Z,27.3
2018-02-20T05:20:58.000Z,27.3
2018-02-20T05:22:58.000Z,27.3
2018-02-20T05:24:58.000Z,27.3
2018-02-20T05:26:58.000Z,27.2
2018-02-20T05:28:58.000Z,27.2
2018-02-20T05:30:58.000Z,27.1
2018-02-20T05:31:58.000Z,27.1
2018-02-20T05:33:58.000Z,27.2
2018-02-20T05:35:58.000Z,27.2
2018-02-20T05:37:58.000Z,27.3
2018-02-20T05:38:58.000Z,27.3
2018-02-20T05:39:58.000Z,27.3
2018-02-20T05:41:58.000Z,27.4
2018-02-20T05:43:58.000Z,27.4
2018-02-20T05:44:58.000Z,27.4
2018-02-20T05:46:58.000Z,27.3
2018-02-20T05:47:58.000Z,27.4
2018-02-20T05:49:58.000Z,27.4
2018-02-20T05:51:58.000Z,27.3
2018-02-20T05:52:58.000Z,27.3
2018-02-20T05:53:58.000Z,27.3
2018-02-20T05:55:58.000Z,27.4
2018-02-20T05:57:58.000Z,27.4
2018-02-20T05:58:58.000Z,27.4
2018-02-20T06:00:58.000Z,27.4
2018-02-20T06:02:58.000Z,27.3
2018-02-20T06:03:58.000Z,27.3
2018-02-20T06:04:58.000Z,27.4
2018-02-20T06:06:58.000Z,27.4
2018-02-20T06:07:58.000Z,27.4
2018-02-20T06:09:58.000Z,27.4
2018-02-20T06:11:58.000Z,27.4
2018-02-20T06:12:58.000Z,27.4
2018-02-20T06:14:58.000Z,27.4
2018-02-20T06:15:58.000Z,27.4
2018-02-20T06:17:58.000Z,27.5
2018-02-20T06:18:58.000Z,27.5
2018-02-20T06:19:58.000Z,27.5
2018-02-20T06:21:58.000Z,27.6
2018-02-20T06:23:58.000Z,27.6
2018-02-20T06:25:58.000Z,27.5
2018-02-20T06:26:58.000Z,27.5
2018-02-20T06:27:58.000Z,27.5
2018-02-20T06:28:58.000Z,27.5
2018-02-20T06:30:58.000Z,27.6
2018-02-20T06:31:58.000Z,27.6
2018-02-20T06:33:42.000Z,27.6
2018-02-20T06:34:58.000Z,27.6
2018-02-20T06:35:58.000Z,27.6
2018-02-20T06:36:58.000Z,27.6
2018-02-20T06:37:58.000Z,27.7
2018-02-20T06:38:58.000Z,27.7
2018-02-20T06:40:58.000Z,27.7
2018-02-20T06:42:58.000Z,27.6
2018-02-20T06:43:58.000Z,27.6
2018-02-20T06:45:58.000Z,27.6
2018-02-20T06:46:58.000Z,27.6
2018-02-20T06:47:58.000Z,27.6
2018-02-20T06:49:58.000Z,27.6
2018-02-20T06:50:58.000Z,27.6
2018-02-20T06:52:58.000Z,27.6
2018-02-20T06:54:58.000Z,27.3
2018-02-20T06:55:58.000Z,26.9
2018-02-20T06:56:58.000Z,26.7
2018-02-20T06:58:58.000Z,26.2
2018-02-20T06:59:58.000Z,25.9
2018-02-20T07:01:58.000Z,25
2018-02-20T07:03:42.000Z,24.4
2018-02-20T07:04:58.000Z,24
2018-02-20T07:05:58.000Z,23.8
2018-02-20T07:07:58.000Z,23.4
2018-02-20T07:08:58.000Z,23.1
2018-02-20T07:10:58.000Z,22.5
2018-02-20T07:11:58.000Z,22.2
2018-02-20T07:12:58.000Z,22
2018-02-20T07:14:58.000Z,22.1
2018-02-20T07:15:58.000Z,22.4
2018-02-20T07:17:58.000Z,23
2018-02-20T07:19:58.000Z,23.5
2018-02-20T07:21:58.000Z,23.9
2018-02-20T07:23:42.000Z,24.2
2018-02-20T07:24:58.000Z,24.4
2018-02-20T07:25:58.000Z,24.6
2018-02-20T07:27:58.000Z,24.9
2018-02-20T07:28:58.000Z,25.1
2018-02-20T07:30:58.000Z,25.5
2018-02-20T07:31:58.000Z,25.6
2018-02-20T07:33:42.000Z,25.9
2018-02-20T07:34:58.000Z,26
2018-02-20T07:36:58.000Z,26.1
2018-02-20T07:37:58.000Z,26.2
2018-02-20T07:38:58.000Z,26.3
2018-02-20T07:40:58.000Z,26.6
2018-02-20T07:41:58.000Z,26.6
2018-02-20T07:43:58.000Z,26.9
2018-02-20T07:44:58.000Z,27
2018-02-20T07:46:58.000Z,27.2
2018-02-20T07:48:58.000Z,27.3
2018-02-20T07:50:58.000Z,27.4
2018-02-20T07:52:58.000Z,27.4
2018-02-20T07:54:58.000Z,27.6
2018-02-20T07:55:58.000Z,27.6
2018-02-20T07:56:58.000Z,27.7
2018-02-20T07:58:58.000Z,28
2018-02-20T07:59:58.000Z,28
2018-02-20T08:01:58.000Z,28.2
2018-02-20T08:03:58.000Z,28.3
2018-02-20T08:05:58.000Z,28.2
2018-02-20T08:06:58.000Z,28.3
2018-02-20T08:07:58.000Z,28.4
2018-02-20T08:09:58.000Z,28.6
2018-02-20T08:10:58.000Z,28.6
2018-02-20T08:12:58.000Z,28.8
2018-02-20T08:14:58.000Z,28.8
2018-02-20T08:15:58.000Z,28.9
2018-02-20T08:17:58.000Z,29
2018-02-20T08:18:58.000Z,29.1
2018-02-20T08:20:58.000Z,29.3
2018-02-20T08:21:58.000Z,29.4
2018-02-20T08:23:58.000Z,29.6
2018-02-20T08:25:58.000Z,29.8
2018-02-20T08:26:58.000Z,29.8
2018-02-20T08:28:58.000Z,30
2018-02-20T08:29:58.000Z,30.1
2018-02-20T08:31:58.000Z,30.3
2018-02-20T08:32:58.000Z,30.4
2018-02-20T08:33:58.000Z,30.5
2018-02-20T08:34:58.000Z,30.6
2018-02-20T08:36:43.000Z,30.7
2018-02-20T08:37:58.000Z,30.6
2018-02-20T08:38:58.000Z,30.6
2018-02-20T08:40:58.000Z,30.6
2018-02-20T08:41:58.000Z,30.5
2018-02-20T08:43:58.000Z,30.6
2018-02-20T08:45:58.000Z,30.5
2018-02-20T08:47:58.000Z,30.3
2018-02-20T08:49:58.000Z,30.2
2018-02-20T08:50:58.000Z,30.1
2018-02-20T08:51:58.000Z,30.1
2018-02-20T08:53:58.000Z,30
2018-02-20T08:54:58.000Z,30
2018-02-20T08:56:58.000Z,29.9
2018-02-20T08:58:58.000Z,29.9
2018-02-20T08:59:58.000Z,29.9
2018-02-20T09:01:58.000Z,29.8
2018-02-20T09:02:58.000Z,29.8
2018-02-20T09:03:58.000Z,29.9
2018-02-20T09:05:58.000Z,29.9
2018-02-20T09:06:58.000Z,29.8
2018-02-20T09:08:58.000Z,29.8
2018-02-20T09:09:58.000Z,29.8
2018-02-20T09:11:58.000Z,29.8
2018-02-20T09:12:58.000Z,29.8
2018-02-20T09:14:58.000Z,29.8
2018-02-20T09:16:58.000Z,29.8
2018-02-20T09:17:58.000Z,29.7
2018-02-20T09:18:58.000Z,29.8
2018-02-20T09:19:58.000Z,29.8
2018-02-20T09:20:58.000Z,29.8
2018-02-20T09:21:58.000Z,29.9
2018-02-20T09:23:58.000Z,29.8
2018-02-20T09:24:58.000Z,29.8
2018-02-20T09:26:58.000Z,29.8
2018-02-20T09:27:58.000Z,29.8
2018-02-20T09:29:58.000Z,29.8
2018-02-20T09:30:58.000Z,29.8
2018-02-20T09:32:58.000Z,29.9
2018-02-20T09:34:58.000Z,29.8
2018-02-20T09:35:58.000Z,29.8
2018-02-20T09:37:58.000Z,29.9
2018-02-20T09:39:58.000Z,29.8
2018-02-20T09:41:43.000Z,29.8
2018-02-20T09:42:58.000Z,29.7
2018-02-20T09:44:58.000Z,29.7
2018-02-20T09:45:58.000Z,29.7
2018-02-20T09:46:58.000Z,29.8
2018-02-20T09:48:58.000Z,29.9
2018-02-20T09:50:58.000Z,29.9
2018-02-20T09:52:58.000Z,29.8
2018-02-20T09:54:58.000Z,29.8
2018-02-20T09:56:58.000Z,29.8
2018-02-20T09:58:58.000Z,29.8
2018-02-20T09:59:58.000Z,29.8
2018-02-20T10:00:58.000Z,29.8
2018-02-20T10:01:58.000Z,29.9
2018-02-20T10:02:58.000Z,30
2018-02-20T10:03:58.000Z,30.1
2018-02-20T10:05:58.000Z,30.2
2018-02-20T10:06:58.000Z,30.2
2018-02-20T10:10:42.000Z,30.6
2018-02-20T10:12:42.000Z,30.7
2018-02-20T10:13:42.000Z,30.7
2018-02-20T10:15:42.000Z,30.6
2018-02-20T10:16:42.000Z,30.6
2018-02-20T10:18:42.000Z,30.6
2018-02-20T10:20:42.000Z,30.5
2018-02-20T10:22:42.000Z,30.5
2018-02-20T10:24:42.000Z,30.4
2018-02-20T10:26:42.000Z,29.7
2018-02-20T10:27:42.000Z,29.3
2018-02-20T10:29:42.000Z,28.7
2018-02-20T10:30:42.000Z,28.5
2018-02-20T10:32:42.000Z,28.2
2018-02-20T10:34:42.000Z,27.8
2018-02-20T10:35:42.000Z,27.6
2018-02-20T10:36:42.000Z,27.4
2018-02-20T10:37:42.000Z,27.2
2018-02-20T10:38:42.000Z,27.1
2018-02-20T10:39:42.000Z,26.9
2018-02-20T10:40:42.000Z,26.8
2018-02-20T10:42:26.000Z,26.6
2018-02-20T10:43:42.000Z,26.4
2018-02-20T10:45:42.000Z,26.2
2018-02-20T10:47:42.000Z,26
2018-02-20T10:48:42.000Z,25.9
2018-02-20T10:49:42.000Z,25.9
2018-02-20T10:50:42.000Z,25.8
2018-02-20T10:51:42.000Z,25.7
2018-02-20T10:52:42.000Z,25.7
2018-02-20T10:54:42.000Z,25.6
2018-02-20T10:55:42.000Z,25.5
2018-02-20T10:57:42.000Z,25.4
2018-02-20T10:58:42.000Z,25.5
2018-02-20T11:00:42.000Z,25.4
2018-02-20T11:01:42.000Z,25.4
2018-02-20T11:03:42.000Z,25.6
2018-02-20T11:04:42.000Z,25.7
2018-02-20T11:06:42.000Z,26
2018-02-20T11:08:26.000Z,26.2
2018-02-20T11:09:42.000Z,26.4
2018-02-20T11:11:42.000Z,26.3
2018-02-20T11:13:42.000Z,26.4
2018-02-20T11:15:42.000Z,26.3
2018-02-20T11:17:42.000Z,26.2
2018-02-20T11:18:42.000Z,26.2
2018-02-20T11:20:42.000Z,26.3
2018-02-20T11:22:42.000Z,26.2
2018-02-20T11:24:42.000Z,26.3
2018-02-20T11:25:42.000Z,26.4
2018-02-20T11:27:42.000Z,26.4
2018-02-20T11:29:42.000Z,26.2
2018-02-20T11:30:42.000Z,26.2
2018-02-20T11:32:42.000Z,26.2
2018-02-20T11:33:42.000Z,26.1
2018-02-20T11:35:42.000Z,26
2018-02-20T11:37:26.000Z,26
2018-02-20T11:38:42.000Z,26
2018-02-20T11:40:42.000Z,25.9
2018-02-20T11:41:42.000Z,25.9
2018-02-20T11:43:42.000Z,26
2018-02-20T11:44:42.000Z,26
2018-02-20T11:46:42.000Z,26
2018-02-20T11:48:42.000Z,26
2018-02-20T11:50:42.000Z,25.9
2018-02-20T11:52:42.000Z,25.7
2018-02-20T11:54:42.000Z,25.5
2018-02-20T11:56:42.000Z,25.4
2018-02-20T11:57:42.000Z,25.4
2018-02-20T11:58:42.000Z,25.5
2018-02-20T12:00:42.000Z,25.6
2018-02-20T12:02:42.000Z,25.5
2018-02-20T12:04:42.000Z,25.2
2018-02-20T12:05:42.000Z,25.2
2018-02-20T12:06:42.000Z,25.3
2018-02-20T12:08:42.000Z,25.3
2018-02-20T12:09:42.000Z,25.3
2018-02-20T12:11:42.000Z,25.2
2018-02-20T12:13:42.000Z,25
2018-02-20T12:15:42.000Z,24.8
2018-02-20T12:16:42.000Z,24.8
2018-02-20T12:18:42.000Z,24.9
2018-02-20T12:20:42.000Z,25.1
2018-02-20T12:21:42.000Z,25.2
2018-02-20T12:23:42.000Z,25.6
2018-02-20T12:24:42.000Z,25.7
2018-02-20T12:25:42.000Z,25.9
2018-02-20T12:27:42.000Z,25.9
2018-02-20T12:29:42.000Z,25.8
2018-02-20T12:30:42.000Z,25.9
2018-02-20T12:31:42.000Z,26.1
2018-02-20T12:33:42.000Z,26.4
2018-02-20T12:35:42.000Z,26.5
2018-02-20T12:36:42.000Z,26.6
2018-02-20T12:38:42.000Z,26.9
2018-02-20T12:39:42.000Z,27
2018-02-20T12:40:42.000Z,26.9
2018-02-20T12:41:42.000Z,26.8
2018-02-20T12:43:42.000Z,26.4
2018-02-20T12:45:42.000Z,26.1
2018-02-20T12:47:42.000Z,25.6
2018-02-20T12:48:42.000Z,25.5
2018-02-20T12:50:42.000Z,25.5
2018-02-20T12:51:42.000Z,25.5
2018-02-20T12:53:42.000Z,25.5
2018-02-20T12:54:42.000Z,25.6
2018-02-20T12:55:42.000Z,25.5
2018-02-20T12:57:42.000Z,25.5
2018-02-20T12:59:42.000Z,25.5
2018-02-20T13:00:42.000Z,25.4
2018-02-20T13:02:42.000Z,25.3
2018-02-20T13:04:42.000Z,25.1
2018-02-20T13:05:42.000Z,25
2018-02-20T13:07:26.000Z,24.9
2018-02-20T13:08:42.000Z,24.9
2018-02-20T13:10:26.000Z,24.9
2018-02-20T13:11:42.000Z,24.8
2018-02-20T13:12:42.000Z,24.8
2018-02-20T13:14:42.000Z,24.9
2018-02-20T13:16:42.000Z,24.9
2018-02-20T13:17:42.000Z,24.9
2018-02-20T13:19:42.000Z,24.9
2018-02-20T13:20:42.000Z,24.8
2018-02-20T13:21:42.000Z,24.7
2018-02-20T13:23:42.000Z,24.7
2018-02-20T13:24:42.000Z,24.6
2018-02-20T13:26:42.000Z,24.5
2018-02-20T13:28:42.000Z,24.4
2018-02-20T13:30:42.000Z,24.4
2018-02-20T13:31:42.000Z,24.4
2018-02-20T13:33:42.000Z,24.5
2018-02-20T13:34:42.000Z,24.5
2018-02-20T13:36:42.000Z,24.5
2018-02-20T13:38:42.000Z,24.4
2018-02-20T13:39:42.000Z,24.4
2018-02-20T13:41:42.000Z,24.3
2018-02-20T13:42:42.000Z,24.3
2018-02-20T13:43:42.000Z,24.3
2018-02-20T13:45:42.000Z,24.4
2018-02-20T13:47:42.000Z,24.3
2018-02-20T13:48:42.000Z,24.3
2018-02-20T13:50:42.000Z,24.1
2018-02-20T13:51:42.000Z,24.2
2018-02-20T13:53:42.000Z,24.2
2018-02-20T13:54:42.000Z,24.3
2018-02-20T13:56:42.000Z,24.4
2018-02-20T13:57:42.000Z,24.5
2018-02-20T13:59:42.000Z,24.5
2018-02-20T14:01:42.000Z,24.4
2018-02-20T14:02:42.000Z,24.4
2018-02-20T14:03:42.000Z,24.3
2018-02-20T14:04:42.000Z,24.3
2018-02-20T14:05:42.000Z,24.4
2018-02-20T14:07:42.000Z,24.4
2018-02-20T14:09:42.000Z,24.3
2018-02-20T14:11:42.000Z,24.1
2018-02-20T14:13:42.000Z,24.1
2018-02-20T14:15:42.000Z,24.1
2018-02-20T14:16:42.000Z,24.1
2018-02-20T14:18:42.000Z,24.1
2018-02-20T14:20:42.000Z,24.2
2018-02-20T14:21:42.000Z,24.3
2018-02-20T14:23:42.000Z,24.4
2018-02-20T14:25:42.000Z,24.5
2018-02-20T14:27:42.000Z,25
2018-02-20T14:29:42.000Z,26.2
2018-02-20T14:31:26.000Z,27.2
2018-02-20T14:32:42.000Z,27.8
2018-02-20T14:33:42.000Z,28.2
2018-02-20T14:35:42.000Z,28.8
2018-02-20T14:36:42.000Z,28.9
2018-02-20T14:37:42.000Z,29
2018-02-20T14:39:26.000Z,28.8
2018-02-20T14:40:42.000Z,28.6
2018-02-20T14:41:42.000Z,28.4
2018-02-20T14:43:42.000Z,28.2
2018-02-20T14:45:42.000Z,28
2018-02-20T14:46:42.000Z,28
2018-02-20T14:48:42.000Z,27.9
2018-02-20T14:50:42.000Z,27.9
2018-02-20T14:51:42.000Z,27.9
2018-02-20T14:53:42.000Z,27.9
2018-02-20T14:54:42.000Z,27.9
2018-02-20T14:55:42.000Z,27.9
2018-02-20T14:57:42.000Z,28
2018-02-20T14:58:42.000Z,28
2018-02-20T14:59:42.000Z,28
2018-02-20T15:01:42.000Z,28
2018-02-20T15:03:42.000Z,27.9
2018-02-20T15:04:42.000Z,27.9
2018-02-20T15:05:42.000Z,27.9
2018-02-20T15:07:42.000Z,27.9
2018-02-20T15:08:42.000Z,27.9
2018-02-20T15:09:42.000Z,27.9
2018-02-20T15:10:42.000Z,27.9
2018-02-20T15:12:42.000Z,27.9
2018-02-20T15:13:42.000Z,28
2018-02-20T15:14:42.000Z,28
2018-02-20T15:15:42.000Z,28
2018-02-20T15:16:42.000Z,28
2018-02-20T15:18:42.000Z,28
2018-02-20T15:20:42.000Z,28
2018-02-20T15:21:42.000Z,28
2018-02-20T15:22:42.000Z,28
2018-02-20T15:24:26.000Z,28.1
2018-02-20T15:25:42.000Z,28
2018-02-20T15:26:42.000Z,28.1
2018-02-20T15:28:42.000Z,28.1
2018-02-20T15:30:42.000Z,28
2018-02-20T15:32:42.000Z,28
2018-02-20T15:33:42.000Z,28
2018-02-20T15:35:42.000Z,28
2018-02-20T15:36:42.000Z,28
2018-02-20T15:38:42.000Z,28
2018-02-20T15:39:42.000Z,27.9
2018-02-20T15:41:42.000Z,28
2018-02-20T15:43:42.000Z,27.9
2018-02-20T15:44:42.000Z,27.9
2018-02-20T15:46:42.000Z,27.9
2018-02-20T15:48:42.000Z,27.9
2018-02-20T15:50:42.000Z,28
2018-02-20T15:52:42.000Z,27.9
2018-02-20T15:53:42.000Z,27.9
2018-02-20T15:55:42.000Z,28
2018-02-20T15:56:42.000Z,28
2018-02-20T15:58:42.000Z,28.1
2018-02-20T15:59:42.000Z,28.1
2018-02-20T16:00:42.000Z,28.2
2018-02-20T16:01:42.000Z,28.3
2018-02-20T16:03:42.000Z,28.4
2018-02-20T16:05:42.000Z,28.3
2018-02-20T16:06:42.000Z,28.3
2018-02-20T16:08:42.000Z,28.3
2018-02-20T16:09:42.000Z,28.3
2018-02-20T16:10:42.000Z,28.3
2018-02-20T16:11:42.000Z,28.4
2018-02-20T16:12:42.000Z,28.4
2018-02-20T16:13:42.000Z,28.5
2018-02-20T16:15:42.000Z,28.5
2018-02-20T16:16:42.000Z,28.5
2018-02-20T16:18:42.000Z,28.5
2018-02-20T16:20:42.000Z,28.4
2018-02-20T16:21:42.000Z,28.3
2018-02-20T16:23:42.000Z,28.3
2018-02-20T16:25:42.000Z,28.2
2018-02-20T16:27:42.000Z,28.1
2018-02-20T16:28:42.000Z,28.1
2018-02-20T16:30:42.000Z,28.1
2018-02-20T16:31:42.000Z,28.1
2018-02-20T16:33:27.000Z,28.2
2018-02-20T16:34:42.000Z,28.1
2018-02-20T16:35:42.000Z,28.1
2018-02-20T16:36:42.000Z,28.1
2018-02-20T16:37:42.000Z,28.1
2018-02-20T16:39:42.000Z,28.1
2018-02-20T16:41:42.000Z,28.1
2018-02-20T16:43:42.000Z,28
2018-02-20T16:44:42.000Z,28
2018-02-20T16:45:42.000Z,28
2018-02-20T16:47:42.000Z,28.1
2018-02-20T16:49:42.000Z,28
2018-02-20T16:50:42.000Z,28
2018-02-20T16:51:42.000Z,28
2018-02-20T16:53:42.000Z,28
2018-02-20T16:55:42.000Z,27.9
2018-02-20T16:57:42.000Z,27.9
2018-02-20T16:58:42.000Z,27.9
2018-02-20T16:59:42.000Z,27.9
2018-02-20T17:00:42.000Z,28
2018-02-20T17:02:42.000Z,28
2018-02-20T17:03:42.000Z,28
2018-02-20T17:04:42.000Z,28
2018-02-20T17:06:42.000Z,28
2018-02-20T17:07:42.000Z,28
2018-02-20T17:09:42.000Z,28
2018-02-20T17:10:42.000Z,28
2018-02-20T17:12:42.000Z,27.9
2018-02-20T17:13:42.000Z,27.9
2018-02-20T17:15:42.000Z,28
2018-02-20T17:17:42.000Z,27.9
2018-02-20T17:19:42.000Z,27.8
2018-02-20T17:20:42.000Z,27.8
2018-02-20T17:21:42.000Z,27.9
2018-02-20T17:23:42.000Z,27.9
2018-02-20T17:25:42.000Z,27.9
2018-02-20T17:26:42.000Z,27.8
2018-02-20T17:28:42.000Z,27.9
2018-02-20T17:29:42.000Z,27.9
2018-02-20T17:30:42.000Z,27.9
2018-02-20T17:32:42.000Z,28
2018-02-20T17:33:42.000Z,28
2018-02-20T17:35:42.000Z,28
2018-02-20T17:37:42.000Z,28
2018-02-20T17:38:42.000Z,28
2018-02-20T17:40:42.000Z,28
2018-02-20T17:42:42.000Z,28
2018-02-20T17:44:42.000Z,27.9
2018-02-20T17:46:42.000Z,27.8
2018-02-20T17:48:42.000Z,27.8
2018-02-20T17:49:42.000Z,27.8
2018-02-20T17:50:42.000Z,27.9
2018-02-20T17:51:42.000Z,27.9
2018-02-20T17:53:42.000Z,28
2018-02-20T17:54:42.000Z,28
2018-02-20T17:55:42.000Z,28
2018-02-20T17:56:42.000Z,28
2018-02-20T17:58:42.000Z,28.1
2018-02-20T17:59:42.000Z,28.1
2018-02-20T18:00:42.000Z,28.1
2018-02-20T18:02:42.000Z,28
2018-02-20T18:03:42.000Z,28
2018-02-20T18:04:42.000Z,28.1
2018-02-20T18:06:42.000Z,28
2018-02-20T18:08:42.000Z,27.8
2018-02-20T18:10:42.000Z,27.7
2018-02-20T18:11:42.000Z,27.7
2018-02-20T18:12:42.000Z,27.8
2018-02-20T18:14:42.000Z,27.8
2018-02-20T18:15:42.000Z,27.8
2018-02-20T18:17:42.000Z,27.8
2018-02-20T18:19:42.000Z,27.7
2018-02-20T18:21:27.000Z,27.6
2018-02-20T18:22:42.000Z,27.6
2018-02-20T18:24:42.000Z,27.6
2018-02-20T18:26:42.000Z,27.6
2018-02-20T18:27:42.000Z,27.6
2018-02-20T18:29:27.000Z,27.7
2018-02-20T18:30:42.000Z,27.6
2018-02-20T18:31:42.000Z,27.7
2018-02-20T18:33:42.000Z,27.7
2018-02-20T18:35:42.000Z,27.7
2018-02-20T18:37:42.000Z,27.7
2018-02-20T18:39:27.000Z,27.7
2018-02-20T18:40:42.000Z,27.6
2018-02-20T18:41:42.000Z,27.6
2018-02-20T18:43:42.000Z,27.7
2018-02-20T18:44:42.000Z,27.7
2018-02-20T18:45:42.000Z,27.7
2018-02-20T18:46:42.000Z,27.8
2018-02-20T18:47:42.000Z,27.9
2018-02-20T18:48:42.000Z,27.9
2018-02-20T18:50:42.000Z,27.9
2018-02-20T18:52:42.000Z,27.8
2018-02-20T18:53:42.000Z,27.8
2018-02-20T18:54:42.000Z,27.8
2018-02-20T18:56:42.000Z,27.8
2018-02-20T18:57:42.000Z,27.7
2018-02-20T18:59:42.000Z,27.8
2018-02-20T19:00:42.000Z,27.8
2018-02-20T19:01:42.000Z,27.8
2018-02-20T19:03:42.000Z,27.8
2018-02-20T19:04:42.000Z,27.8
2018-02-20T19:05:42.000Z,27.8
2018-02-20T19:06:42.000Z,27.9
2018-02-20T19:08:42.000Z,27.9
2018-02-20T19:09:42.000Z,27.9
2018-02-20T19:11:42.000Z,27.8
2018-02-20T19:12:42.000Z,27.8
2018-02-20T19:14:42.000Z,27.8
2018-02-20T19:15:42.000Z,27.8
2018-02-20T19:16:42.000Z,27.8
2018-02-20T19:18:42.000Z,27.8
2018-02-20T19:19:42.000Z,27.8
2018-02-20T19:21:42.000Z,27.8
2018-02-20T19:22:42.000Z,27.8
2018-02-20T19:24:42.000Z,27.7
2018-02-20T19:26:42.000Z,27.7
2018-02-20T19:28:42.000Z,27.7
2018-02-20T19:29:42.000Z,27.7
2018-02-20T19:30:42.000Z,27.7
2018-02-20T19:31:42.000Z,27.7
2018-02-20T19:33:42.000Z,27.7
2018-02-20T19:34:42.000Z,27.7
2018-02-20T19:35:42.000Z,27.8
2018-02-20T19:37:42.000Z,27.8
2018-02-20T19:39:42.000Z,27.8
2018-02-20T19:40:42.000Z,27.8
2018-02-20T19:41:42.000Z,27.8
2018-02-20T19:43:42.000Z,27.8
2018-02-20T19:44:42.000Z,27.8
2018-02-20T19:45:42.000Z,27.9
2018-02-20T19:47:42.000Z,27.8
2018-02-20T19:49:42.000Z,27.7
2018-02-20T19:50:42.000Z,27.7
2018-02-20T19:51:42.000Z,27.7
2018-02-20T19:53:42.000Z,27.7
2018-02-20T19:54:42.000Z,27.7
2018-02-20T19:56:42.000Z,27.7
2018-02-20T19:58:42.000Z,27.7
2018-02-20T19:59:42.000Z,27.7
2018-02-20T20:00:42.000Z,27.7
2018-02-20T20:01:42.000Z,27.7
2018-02-20T20:03:42.000Z,27.8
2018-02-20T20:05:42.000Z,27.7
2018-02-20T20:07:42.000Z,27.6
2018-02-20T20:08:42.000Z,27.6
2018-02-20T20:09:42.000Z,27.6
2018-02-20T20:10:42.000Z,27.6
2018-02-20T20:11:42.000Z,27.7
2018-02-20T20:13:42.000Z,27.7
2018-02-20T20:14:42.000Z,27.6
2018-02-20T20:16:42.000Z,27.6